x

Mount Louis (45138) Wave Buoy

2:00pm - Wed 30th Jul 2014 All times are UTC.

  • Sig Wave height 1.3ft
  • Peak Period 7s
  • Wind
    11mph, 13mph gusts
  • Sea Temp 55°f
  • Air Temp 58°f
  • Sea Pressure 1017mb

More Historic Weather Station data

Upgrade to MSW Pro to gain access to the past 30 days of data for over 8000 Wavebouys and Weather Stations around the globe.

Join Pro

Comparision Forecast

View Surf forecast
   
Wed 07/30 2:00pm 1.3ft 7s 11 13 mph 1017mb 55f 58f
1:00pm 1.6ft 7s 11 13 mph 1016.9mb 53f 58f
12:00pm 2ft 7s 13 16 mph 1016.4mb 53f 58f
11:00am 2ft 8s 13
mph
1015.5mb 53f 58f
10:00am 2.5ft 7s 11 13 mph 1014.7mb 53f 58f
9:00am 2.5ft 7s 11 13 mph 1013.7mb 54f 58f
8:00am 2.5ft 7s 11 13 mph 1013.2mb 54f 58f
7:00am 3ft 7s 9 11 mph 1012.7mb 54f 57f
6:00am 3ft 7s 7 9 mph 1012mb 54f 56f
5:00am 3.5ft 7s 11 13 mph 1011.1mb 54f 55f
4:00am 4.5ft 8s 13 18 mph 1010.5mb 54f 56f
3:00am 4.5ft 8s 13 16 mph 1009.9mb 55f 56f
2:00am 5ft 6s 16 18 mph 1009.3mb 55f 56f
1:00am 5ft 6s 16 18 mph 1008.8mb 55f 58f
12:00am 5ft 5s 22 25 mph 1007.1mb 56f 59f
Tue 07/29 11:00pm 5ft 6s 25 29 mph 1006.2mb 56f 60f
10:00pm 6ft 5s 27 31 mph 1004.4mb 56f 61f
8:00pm 4ft 8s 25 31 mph 1001.8mb 57f 59f
7:00pm 3.5ft 7s 16 20 mph 1001.1mb 58f 58f
6:00pm 4ft 7s 13 16 mph 1000.1mb 58f 59f
5:00pm 4ft 7s 16 18 mph 998.8mb 58f 66f
4:00pm 4.5ft 8s 9 18 mph 998.6mb 58f 66f
3:00pm 3.5ft 6s 18 20 mph 997.8mb 57f 66f
2:00pm 3.5ft 7s 18
mph
997.6mb 57f 66f
1:00pm 3.5ft 6s 9 13 mph 997.3mb 57f 66f
12:00pm 3.5ft 6s 11 16 mph 997.5mb 58f 64f
11:00am 3.5ft 6s 13 16 mph 997.4mb 58f 64f
10:00am 3.5ft 5s 16 18 mph 998.1mb 58f 61f
9:00am 3.5ft 5s 22 25 mph 998.2mb 58f 64f
8:00am 3.5ft 4s 22 27 mph 998.5mb 58f 64f
7:00am 3.5ft 4s 18 20 mph 998.8mb 58f 63f
6:00am 3.5ft 4s 20 25 mph 999.5mb 59f 62f
5:00am 3ft 4s 22 25 mph 1000.2mb 59f 62f
4:00am 2.5ft 7s 13 18 mph 1002.2mb 59f 62f
3:00am 1.3ft 7s 16 20 mph 1003.3mb 60f 62f
2:00am 1.3ft 7s 13
mph
1003.9mb 61f 61f
1:00am 1.3ft 5s 7 9 mph 1005.4mb 62f 61f
12:00am 1.3ft 7s 4 7 mph 1006.1mb 62f 62f
Mon 07/28 11:00pm 1.3ft 7s 4
mph
1006.2mb 63f 63f
10:00pm 1.3ft 7s 4 7 mph 1006.6mb 63f 63f
9:00pm 1.3ft 5s 2 4 mph 1007mb 64f 63f
8:00pm 1.3ft 6s  -  2 mph 1007mb 63f 64f
7:00pm 1ft 6s 2
mph
1007.4mb 63f 62f
6:00pm 1.3ft 5s 2 4 mph 1007.2mb 62f 61f
5:00pm 1.3ft 5s 4
mph
1006.9mb 60f 60f
4:00pm 1.3ft 6s 7 9 mph 1007.2mb 59f 59f
3:00pm 1.3ft 6s 7
mph
1006.8mb 59f 59f
2:00pm 1.3ft 5s 7 9 mph 1006.8mb 59f 60f
1:00pm 1.3ft 6s 9 11 mph 1006.3mb 58f 60f
12:00pm 1.3ft 6s 9
mph
1005.3mb 58f 63f
11:00am 1.3ft 6s 7 9 mph 1004.8mb 58f 63f
10:00am 1.3ft 5s 9 11 mph 1004.6mb 58f 62f
9:00am 1.3ft 6s 9 11 mph 1004.1mb 57f 63f
8:00am 1.6ft 6s 9 13 mph 1003.7mb 57f 63f
7:00am 2ft 6s 4
mph
1003.4mb 57f 61f
6:00am 2ft 3s 16 18 mph 1002.4mb 57f 64f
5:00am 1.6ft 6s 13 16 mph 1002.7mb 57f 63f
4:00am 2ft 5s 13 18 mph 1003mb 57f 65f
3:00am 1.6ft 6s 11 13 mph 1003.3mb 57f 64f
2:00am 1.3ft 4s 11 13 mph 1003.8mb 58f 63f
1:00am 1.3ft 4s 7 11 mph 1004.5mb 58f 62f
12:00am 1.6ft 4s 9
mph
1004.6mb 58f 60f
Sun 07/27 11:00pm 1.6ft 4s 11
mph
1004.9mb 58f 60f
10:00pm 1.3ft 4s 11 13 mph 1005.2mb 58f 60f
9:00pm 1.3ft 4s 11 13 mph 1005.5mb 58f 60f
8:00pm 1.3ft 3s 11 13 mph 1005.8mb 58f 60f
7:00pm 1.3ft 3s 11 13 mph 1006mb 58f 60f
6:00pm 1.3ft 3s 11 13 mph 1006.4mb 58f 60f
5:00pm 1.3ft 5s 13
mph
1006.9mb 58f 59f
4:00pm 1ft 5s 11 13 mph 1007.5mb 58f 60f
3:00pm 1ft 5s 9 11 mph 1007.9mb 58f 59f
2:00pm 1.3ft 5s 9 11 mph 1008.1mb 58f 59f
1:00pm 1.3ft 5s 7 9 mph 1008.1mb 58f 59f
12:00pm 1.3ft 5s 4 7 mph 1008mb 56f 58f
11:00am 1.6ft 5s 4
mph
1008mb 57f 58f
10:00am 2ft 5s 2 4 mph 1007.7mb 56f 58f
9:00am 2.5ft 5s 4 7 mph 1007.5mb 57f 58f
8:00am 2ft 5s 4
mph
1007.1mb 57f 58f
7:00am 2.5ft 6s 7 9 mph 1007.1mb 57f 58f
6:00am 2.5ft 5s 9 11 mph 1007.2mb 56f 58f
5:00am 3ft 6s 13
mph
1007.1mb 56f 58f
4:00am 3ft 5s 16 18 mph 1006.6mb 56f 59f
3:00am 2.5ft 5s 16 20 mph 1006.3mb 56f 60f
2:00am 2ft 5s 18 22 mph 1006.1mb 56f 60f
1:00am 2ft 5s 13 18 mph 1006mb 56f 59f
12:00am 2ft 5s 13 18 mph 1005.6mb 56f 59f
Sat 07/26 11:00pm 2.5ft 5s 13
mph
1005.4mb 56f 57f
10:00pm 2ft 5s 11 13 mph 1005.1mb 54f 57f
9:00pm 2.5ft 5s 13 16 mph 1005mb 54f 59f
8:00pm 2.5ft 5s 7 9 mph 1005mb 56f 59f
7:00pm 2.5ft 5s 13
mph
1005mb 56f 59f
6:00pm 2.5ft 5s 11 16 mph 1004.9mb 55f 58f
5:00pm 2.5ft 5s 13
mph
1005mb 53f 58f
4:00pm 2.5ft 5s 18 20 mph 1005.3mb 55f 60f